createdAt,value
2018-09-19T00:01:29.420Z,17.98
2018-09-19T00:03:58.151Z,17.94
2018-09-19T00:06:29.937Z,17.87
2018-09-19T00:08:58.828Z,17.87
2018-09-19T00:11:26.963Z,17.62
2018-09-19T00:13:55.980Z,17.62
2018-09-19T00:16:24.596Z,17.50
2018-09-19T00:18:52.833Z,17.39
2018-09-19T00:21:21.538Z,17.33
2018-09-19T00:23:49.558Z,17.30
2018-09-19T00:26:19.954Z,17.21
2018-09-19T00:28:49.387Z,17.19
2018-09-19T00:31:22.118Z,17.19
2018-09-19T00:33:50.294Z,17.19
2018-09-19T00:36:22.871Z,17.06
2018-09-19T00:38:51.448Z,16.99
2018-09-19T00:41:19.393Z,16.99
2018-09-19T00:43:47.712Z,16.96
2018-09-19T00:46:15.721Z,16.93
2018-09-19T00:48:43.824Z,16.89
2018-09-19T00:51:11.790Z,16.83
2018-09-19T00:53:39.826Z,16.73
2018-09-19T00:56:07.798Z,16.75
2018-09-19T00:58:36.159Z,16.73
2018-09-19T01:01:04.172Z,16.53
2018-09-19T01:03:32.343Z,16.51
2018-09-19T01:06:00.412Z,16.42
2018-09-19T01:08:28.473Z,16.41
2018-09-19T01:10:56.478Z,16.41
2018-09-19T01:13:24.549Z,16.36
2018-09-19T01:15:52.477Z,16.41
2018-09-19T01:18:20.460Z,16.28
2018-09-19T01:20:48.416Z,16.27
2018-09-19T01:23:16.500Z,16.36
2018-09-19T01:25:44.850Z,16.26
2018-09-19T01:28:12.853Z,16.25
2018-09-19T01:30:41.303Z,16.24
2018-09-19T01:33:09.482Z,16.14
2018-09-19T01:35:37.755Z,16.02
2018-09-19T01:38:06.118Z,15.98
2018-09-19T01:40:34.283Z,15.94
2018-09-19T01:43:02.345Z,15.98
2018-09-19T01:45:30.472Z,15.96
2018-09-19T01:47:58.656Z,15.90
2018-09-19T01:50:26.645Z,15.96
2018-09-19T01:52:54.679Z,15.97
2018-09-19T01:55:22.648Z,15.95
2018-09-19T01:57:50.621Z,15.94
2018-09-19T02:00:18.607Z,15.98
2018-09-19T02:02:46.768Z,15.97
2018-09-19T02:05:14.738Z,15.97
2018-09-19T02:07:42.698Z,15.88
2018-09-19T02:10:10.807Z,15.86
2018-09-19T02:12:38.942Z,15.89
2018-09-19T02:15:07.157Z,15.81
2018-09-19T02:17:35.162Z,15.78
2018-09-19T02:20:03.215Z,15.79
2018-09-19T02:22:31.360Z,15.80
2018-09-19T02:24:59.377Z,15.84
2018-09-19T02:27:27.359Z,15.85
2018-09-19T02:29:55.515Z,15.93
2018-09-19T02:32:23.800Z,16.11
2018-09-19T02:34:51.860Z,16.18
2018-09-19T02:37:19.851Z,16.29
2018-09-19T02:39:48.020Z,16.30
2018-09-19T02:42:16.020Z,16.30
2018-09-19T02:44:44.233Z,16.41
2018-09-19T02:47:12.277Z,16.51
2018-09-19T02:49:40.331Z,16.76
2018-09-19T02:52:08.329Z,16.90
2018-09-19T02:54:36.371Z,17.07
2018-09-19T02:57:04.355Z,17.19
2018-09-19T02:59:32.404Z,17.35
2018-09-19T03:02:01.236Z,17.32
2018-09-19T03:04:29.280Z,17.35
2018-09-19T03:06:57.285Z,17.26
2018-09-19T03:09:25.412Z,17.33
2018-09-19T03:11:53.408Z,17.28
2018-09-19T03:14:21.652Z,17.21
2018-09-19T03:19:17.757Z,17.30
2018-09-19T03:21:45.666Z,17.29
2018-09-19T03:24:13.683Z,17.34
2018-09-19T03:26:41.877Z,17.25
2018-09-19T03:29:10.038Z,17.28
2018-09-19T03:31:37.918Z,17.28
2018-09-19T03:34:06.006Z,17.25
2018-09-19T03:36:33.952Z,17.19
2018-09-19T03:39:02.205Z,17.12
2018-09-19T03:41:30.163Z,17.13
2018-09-19T03:43:58.398Z,17.09
2018-09-19T03:46:26.421Z,17.11
2018-09-19T03:48:54.538Z,17.04
2018-09-19T03:51:22.571Z,17.05
2018-09-19T03:53:50.590Z,16.95
2018-09-19T03:56:18.750Z,16.98
2018-09-19T03:58:46.655Z,16.95
2018-09-19T04:01:14.699Z,16.93
2018-09-19T04:03:42.761Z,16.92
2018-09-19T04:06:10.746Z,16.89
2018-09-19T04:08:38.909Z,16.89
2018-09-19T04:11:07.103Z,16.86
2018-09-19T04:13:35.361Z,16.87
2018-09-19T04:16:03.477Z,16.82
2018-09-19T04:18:31.585Z,16.84
2018-09-19T04:20:59.652Z,16.72
2018-09-19T04:23:27.641Z,16.67
2018-09-19T04:25:55.602Z,16.60
2018-09-19T04:28:23.701Z,16.58
2018-09-19T04:30:51.798Z,16.55
2018-09-19T04:33:19.954Z,16.52
2018-09-19T04:35:47.991Z,16.52
2018-09-19T04:38:16.152Z,16.49
2018-09-19T04:40:50.909Z,16.43
2018-09-19T04:43:18.955Z,16.44
2018-09-19T04:45:47.184Z,16.45
2018-09-19T04:48:15.299Z,16.40
2018-09-19T04:50:43.435Z,16.39
2018-09-19T04:53:11.564Z,16.43
2018-09-19T04:55:39.681Z,16.45
2018-09-19T04:58:07.775Z,16.40
2018-09-19T05:00:35.865Z,16.32
2018-09-19T05:03:03.814Z,16.19
2018-09-19T05:05:32.109Z,16.13
2018-09-19T05:08:00.006Z,15.89
2018-09-19T07:24:55.425Z,23.50
2018-09-19T07:30:29.965Z,23.84
2018-09-19T07:38:23.342Z,24.01
2018-09-19T07:58:27.402Z,24.32
2018-09-19T08:00:57.828Z,24.67
2018-09-19T08:24:30.906Z,25.87
2018-09-19T09:39:34.241Z,24.56
2018-09-19T09:42:09.203Z,24.38
2018-09-19T09:44:45.400Z,24.10
2018-09-19T09:47:41.116Z,24.39
2018-09-19T09:55:38.915Z,24.46
2018-09-19T10:01:29.774Z,24.50
2018-09-19T10:06:01.064Z,24.34
2018-09-19T10:13:30.258Z,24.44
2018-09-19T10:16:02.490Z,24.53
2018-09-19T10:21:32.300Z,25.14
2018-09-19T10:27:21.199Z,24.87
2018-09-19T10:33:24.379Z,25.52
2018-09-19T10:36:05.890Z,25.55
2018-09-19T10:41:31.464Z,25.58
2018-09-19T10:44:11.982Z,25.61
2018-09-19T11:15:24.830Z,29.60
2018-09-19T11:23:01.799Z,28.28
2018-09-19T11:25:51.959Z,27.54
2018-09-19T11:31:44.939Z,27.15
2018-09-19T11:34:34.118Z,26.86
2018-09-19T13:17:15.021Z,27.59
2018-09-19T13:25:49.131Z,27.56
2018-09-19T14:56:58.040Z,27.52
2018-09-19T14:59:37.720Z,27.64
2018-09-19T15:02:08.040Z,27.47
2018-09-19T15:04:37.046Z,27.45
2018-09-19T15:07:37.441Z,27.51
2018-09-19T15:10:09.841Z,27.58
2018-09-19T15:12:38.452Z,27.60
2018-09-19T15:30:43.968Z,27.57
2018-09-19T15:36:21.503Z,27.50
2018-09-19T15:41:55.268Z,27.57
2018-09-19T15:44:43.308Z,27.44
2018-09-19T15:49:00.612Z,27.37
2018-09-19T15:51:31.684Z,27.39
2018-09-19T16:00:35.775Z,27.47
2018-09-19T19:41:12.867Z,22.27
2018-09-19T19:43:41.113Z,22.22
2018-09-19T19:46:09.183Z,22.24
2018-09-19T19:48:37.396Z,22.31
2018-09-19T19:51:05.856Z,22.30
2018-09-19T19:53:34.347Z,22.28
2018-09-19T19:56:02.850Z,22.28
2018-09-19T19:58:31.567Z,22.17
2018-09-19T20:01:00.011Z,22.08
2018-09-19T20:03:28.568Z,22.07
2018-09-19T20:05:57.167Z,22.01
2018-09-19T20:08:25.615Z,22.01
2018-09-19T20:10:53.779Z,21.98
2018-09-19T20:13:22.293Z,21.87
2018-09-19T20:15:51.433Z,21.84
2018-09-19T20:18:19.800Z,21.77
2018-09-19T20:20:48.153Z,21.67
2018-09-19T20:23:16.536Z,21.65
2018-09-19T20:25:44.525Z,21.61
2018-09-19T20:28:12.578Z,21.53
2018-09-19T20:30:40.881Z,21.45
2018-09-19T20:33:09.350Z,21.49
2018-09-19T20:35:37.606Z,21.54
2018-09-19T20:38:05.860Z,21.40
2018-09-19T20:40:34.061Z,21.31
2018-09-19T20:43:02.285Z,21.33
2018-09-19T20:45:30.851Z,21.30
2018-09-19T20:47:59.032Z,21.20
2018-09-19T20:50:27.474Z,21.29
2018-09-19T20:52:55.645Z,21.19
2018-09-19T20:55:24.390Z,21.16
2018-09-19T20:57:52.377Z,21.08
2018-09-19T21:00:20.680Z,21.06
2018-09-19T21:02:48.803Z,21.04
2018-09-19T21:05:17.141Z,21.01
2018-09-19T21:07:45.537Z,20.92
2018-09-19T21:10:13.593Z,20.93
2018-09-19T21:12:41.787Z,20.91
2018-09-19T21:15:09.975Z,20.82
2018-09-19T21:17:38.166Z,20.77
2018-09-19T21:20:06.285Z,20.65
2018-09-19T21:22:34.289Z,20.58
2018-09-19T21:25:08.905Z,20.48
2018-09-19T21:27:36.888Z,20.44
2018-09-19T21:30:05.226Z,20.45
2018-09-19T21:32:33.215Z,20.32
2018-09-19T21:35:01.449Z,20.31
2018-09-19T21:37:30.495Z,20.31
2018-09-19T21:39:58.868Z,20.35
2018-09-19T21:42:27.107Z,20.36
2018-09-19T21:44:55.435Z,20.32
2018-09-19T21:47:23.615Z,20.31
2018-09-19T21:49:51.855Z,20.16
2018-09-19T21:52:19.896Z,20.21
2018-09-19T21:54:47.997Z,20.14
2018-09-19T21:57:15.990Z,20.03
2018-09-19T21:59:44.213Z,20.04
2018-09-19T22:02:12.467Z,20.08
2018-09-19T22:04:40.573Z,20.04
2018-09-19T22:07:08.833Z,19.93
2018-09-19T22:09:36.953Z,19.83
2018-09-19T22:12:09.273Z,19.84
2018-09-19T22:14:38.033Z,19.84
2018-09-19T22:17:06.489Z,19.85
2018-09-19T22:19:34.653Z,19.81
2018-09-19T22:22:03.105Z,19.80
2018-09-19T22:24:31.293Z,19.81
2018-09-19T22:26:59.514Z,19.83
2018-09-19T22:29:34.353Z,19.82
2018-09-19T22:32:02.364Z,19.89
2018-09-19T22:34:30.490Z,19.89
2018-09-19T22:36:58.758Z,19.83
2018-09-19T22:39:27.089Z,19.89
2018-09-19T22:41:55.168Z,19.99
2018-09-19T22:44:23.173Z,19.98
2018-09-19T22:46:51.196Z,19.89
2018-09-19T22:49:19.238Z,19.93
2018-09-19T22:51:47.298Z,20.01
2018-09-19T22:54:15.462Z,19.99
2018-09-19T22:56:43.534Z,19.96
2018-09-19T22:59:11.474Z,19.98
2018-09-19T23:01:39.457Z,19.98
2018-09-19T23:04:07.440Z,19.91
2018-09-19T23:06:35.653Z,19.91
2018-09-19T23:09:04.847Z,19.82
2018-09-19T23:11:32.920Z,19.78
2018-09-19T23:14:00.907Z,19.80
2018-09-19T23:16:28.885Z,19.78
2018-09-19T23:18:56.916Z,19.67
2018-09-19T23:21:24.934Z,19.70
2018-09-19T23:23:53.039Z,19.69
2018-09-19T23:26:21.350Z,19.60
2018-09-19T23:28:49.414Z,19.63
2018-09-19T23:31:17.484Z,19.63
2018-09-19T23:33:45.631Z,19.55
2018-09-19T23:36:13.682Z,19.50
2018-09-19T23:38:41.776Z,19.38
2018-09-19T23:41:09.945Z,19.49
2018-09-19T23:43:38.089Z,19.48
2018-09-19T23:46:06.160Z,19.49
2018-09-19T23:48:34.565Z,19.39
2018-09-19T23:51:03.310Z,19.38
2018-09-19T23:53:31.550Z,19.27
2018-09-19T23:55:59.611Z,19.15
2018-09-19T23:58:27.846Z,19.02
